createdAt,value
2023-05-08T00:01:58.365Z,83.44
2023-05-08T00:04:26.828Z,83.79
2023-05-08T00:08:01.392Z,83.74
2023-05-08T00:10:30.648Z,84.00
2023-05-08T00:12:59.238Z,84.18
2023-05-08T00:15:27.655Z,84.39
2023-05-08T00:17:56.004Z,84.57
2023-05-08T00:20:24.450Z,84.78
2023-05-08T00:22:52.904Z,85.05
2023-05-08T00:25:21.312Z,85.15
2023-05-08T00:27:50.815Z,85.25
2023-05-08T00:30:19.354Z,85.64
2023-05-08T00:32:47.793Z,85.78
2023-05-08T00:35:19.690Z,85.77
2023-05-08T00:37:48.151Z,86.03
2023-05-08T00:40:16.544Z,86.12
2023-05-08T00:42:44.926Z,86.11
2023-05-08T00:45:13.341Z,86.31
2023-05-08T00:47:42.487Z,86.51
2023-05-08T00:50:11.255Z,86.68
2023-05-08T00:52:40.681Z,86.73
2023-05-08T00:55:09.336Z,86.69
2023-05-08T00:57:38.624Z,86.96
2023-05-08T01:00:08.381Z,87.19
2023-05-08T01:02:37.326Z,87.10
2023-05-08T01:05:06.584Z,87.35
2023-05-08T01:07:35.047Z,87.37
2023-05-08T01:10:03.557Z,87.46
2023-05-08T01:12:52.430Z,87.80
2023-05-08T01:15:38.404Z,87.95
2023-05-08T01:18:26.394Z,88.18
2023-05-08T01:21:13.160Z,88.36
2023-05-08T01:24:22.848Z,88.28
2023-05-08T01:33:01.885Z,88.50
2023-05-08T01:35:40.027Z,88.47
2023-05-08T01:38:47.389Z,88.47
2023-05-08T01:41:28.424Z,88.77
2023-05-08T01:44:15.632Z,88.63
2023-05-08T01:46:51.087Z,89.00
2023-05-08T01:49:58.278Z,88.85
2023-05-08T01:52:34.816Z,88.63
2023-05-08T01:55:35.713Z,88.69
2023-05-08T02:01:25.693Z,88.49
2023-05-08T02:03:56.046Z,88.38
2023-05-08T02:06:27.071Z,88.56
2023-05-08T02:08:57.773Z,88.64
2023-05-08T02:11:26.329Z,88.88
2023-05-08T02:13:57.883Z,88.79
2023-05-08T02:16:27.323Z,89.14
2023-05-08T02:19:07.188Z,88.98
2023-05-08T02:21:40.359Z,89.10
2023-05-08T02:24:09.860Z,89.16
2023-05-08T02:26:39.573Z,88.93
2023-05-08T02:29:09.294Z,88.89
2023-05-08T02:31:39.700Z,89.23
2023-05-08T02:34:09.718Z,89.08
2023-05-08T02:36:39.850Z,89.20
2023-05-08T02:39:14.010Z,89.20
2023-05-08T02:41:42.507Z,89.23
2023-05-08T02:44:11.300Z,89.31
2023-05-08T02:47:13.125Z,89.21
2023-05-08T02:50:00.430Z,89.00
2023-05-08T02:52:33.137Z,89.24
2023-05-08T02:55:10.606Z,89.31
2023-05-08T02:58:04.188Z,89.39
2023-05-08T03:00:40.973Z,89.36
2023-05-08T03:03:19.233Z,89.38
2023-05-08T03:05:53.912Z,89.54
2023-05-08T03:08:34.194Z,89.42
2023-05-08T03:11:25.783Z,89.54
2023-05-08T03:13:58.893Z,89.61
2023-05-08T03:16:32.257Z,89.89
2023-05-08T03:19:07.364Z,90.03
2023-05-08T03:21:37.528Z,90.27
2023-05-08T03:24:07.462Z,90.47
2023-05-08T03:26:36.782Z,90.23
2023-05-08T03:29:06.519Z,90.65
2023-05-08T03:31:36.591Z,90.67
2023-05-08T03:34:05.499Z,90.84
2023-05-08T03:36:34.520Z,91.17
2023-05-08T03:39:03.579Z,91.61
2023-05-08T03:41:32.197Z,91.86
2023-05-08T03:44:03.612Z,92.35
2023-05-08T03:46:34.498Z,92.43
2023-05-08T03:49:05.543Z,92.77
2023-05-08T03:51:37.238Z,92.64
2023-05-08T03:54:05.881Z,93.31
2023-05-08T03:56:34.445Z,93.46
2023-05-08T03:59:29.305Z,93.58
2023-05-08T04:02:56.795Z,94.26
2023-05-08T04:05:39.840Z,94.27
2023-05-08T04:08:17.450Z,94.42
2023-05-08T04:11:13.515Z,94.72
2023-05-08T04:13:50.532Z,94.88
2023-05-08T04:16:27.003Z,95.02
2023-05-08T04:19:03.733Z,95.28
2023-05-08T04:21:35.526Z,95.47
2023-05-08T04:24:07.642Z,95.41
2023-05-08T04:26:37.358Z,95.78
2023-05-08T04:29:07.096Z,95.88
2023-05-08T04:31:37.289Z,95.96
2023-05-08T04:34:08.854Z,96.24
2023-05-08T04:36:38.826Z,96.36
2023-05-08T04:39:07.321Z,96.59
2023-05-08T04:41:35.809Z,96.71
2023-05-08T04:44:04.732Z,96.92
2023-05-08T04:46:33.164Z,97.07
2023-05-08T04:49:01.660Z,97.24
2023-05-08T04:51:30.148Z,97.23
2023-05-08T04:53:59.154Z,97.18
2023-05-08T04:56:27.561Z,97.16
2023-05-08T04:58:56.486Z,97.27
2023-05-08T05:01:24.917Z,97.18
2023-05-08T05:03:53.530Z,96.96
2023-05-08T05:06:22.029Z,97.20
2023-05-08T05:08:50.537Z,97.09
2023-05-08T05:11:18.866Z,97.02
2023-05-08T05:13:47.167Z,97.00
2023-05-08T05:16:15.721Z,96.99
2023-05-08T05:18:44.324Z,97.02
2023-05-08T05:21:13.493Z,96.89
2023-05-08T05:23:42.387Z,96.35
2023-05-08T05:26:11.190Z,96.19
2023-05-08T05:28:39.715Z,95.72
2023-05-08T05:31:09.961Z,95.59
2023-05-08T05:33:38.490Z,95.30
2023-05-08T05:36:08.400Z,95.10
2023-05-08T05:38:36.927Z,94.92
2023-05-08T05:41:05.352Z,94.92
2023-05-08T05:43:33.760Z,94.91
2023-05-08T05:46:09.871Z,94.69
2023-05-08T05:48:38.251Z,94.56
2023-05-08T05:51:06.717Z,94.38
2023-05-08T05:53:35.001Z,93.91
2023-05-08T05:56:03.707Z,93.88
2023-05-08T05:58:32.052Z,93.87
2023-05-08T06:01:01.274Z,93.71
2023-05-08T06:03:29.860Z,93.45
2023-05-08T06:05:59.776Z,93.09
2023-05-08T06:08:28.895Z,92.88
2023-05-08T06:10:57.258Z,92.80
2023-05-08T06:13:25.859Z,92.53
2023-05-08T06:15:58.889Z,92.20
2023-05-08T06:18:27.276Z,91.89
2023-05-08T06:21:01.559Z,91.91
2023-05-08T06:23:33.935Z,91.71
2023-05-08T06:26:02.335Z,91.40
2023-05-08T06:28:30.688Z,91.16
2023-05-08T06:30:59.093Z,90.62
2023-05-08T06:33:27.453Z,90.70
2023-05-08T06:35:56.535Z,90.40
2023-05-08T06:38:24.922Z,90.31
2023-05-08T06:40:54.114Z,90.27
2023-05-08T06:43:22.516Z,90.17
2023-05-08T06:45:53.625Z,90.23
2023-05-08T06:48:22.029Z,90.00
2023-05-08T06:50:52.042Z,89.64
2023-05-08T06:53:20.412Z,89.22
2023-05-08T06:55:48.788Z,88.99
2023-05-08T06:58:17.132Z,88.66
2023-05-08T07:00:46.139Z,88.76
2023-05-08T07:03:15.022Z,88.42
2023-05-08T07:05:43.516Z,88.19
2023-05-08T07:08:11.864Z,87.62
2023-05-08T07:10:40.435Z,87.17
2023-05-08T07:13:08.857Z,87.08
2023-05-08T07:15:39.086Z,86.96
2023-05-08T07:18:07.489Z,86.96
2023-05-08T07:20:35.955Z,86.71
2023-05-08T07:23:04.323Z,86.31
2023-05-08T07:25:33.056Z,85.95
2023-05-08T07:28:01.659Z,85.81
2023-05-08T07:30:30.027Z,85.36
2023-05-08T07:32:58.326Z,85.29
2023-05-08T07:35:26.973Z,85.37
2023-05-08T07:37:55.355Z,85.00
2023-05-08T07:40:23.741Z,84.92
2023-05-08T07:42:52.367Z,84.51
2023-05-08T07:45:26.324Z,84.20
2023-05-08T07:47:58.659Z,84.04
2023-05-08T07:50:27.236Z,83.72
2023-05-08T07:52:55.631Z,83.28
2023-05-08T07:55:24.307Z,83.15
2023-05-08T07:57:52.711Z,82.83
2023-05-08T08:00:21.996Z,83.03
2023-05-08T08:02:50.586Z,82.63
2023-05-08T08:05:19.436Z,82.36
2023-05-08T08:07:48.392Z,82.26
2023-05-08T08:10:17.085Z,82.18
2023-05-08T08:12:45.678Z,81.97
2023-05-08T08:15:14.307Z,81.79
2023-05-08T08:17:42.874Z,81.37
2023-05-08T08:20:11.941Z,81.65
2023-05-08T08:22:40.357Z,81.25
2023-05-08T08:25:09.453Z,81.01
2023-05-08T08:27:37.988Z,80.73
2023-05-08T08:30:17.053Z,80.84
2023-05-08T08:32:47.049Z,80.73
2023-05-08T08:35:15.773Z,80.40
2023-05-08T08:37:45.237Z,80.19
2023-05-08T08:40:13.709Z,80.00
2023-05-08T08:42:42.146Z,79.88
2023-05-08T08:45:11.363Z,79.51
2023-05-08T08:47:42.672Z,79.21
2023-05-08T08:50:14.763Z,79.29
2023-05-08T08:52:59.622Z,79.17
2023-05-08T08:55:29.953Z,78.92
2023-05-08T08:58:29.461Z,78.81
2023-05-08T09:01:00.404Z,78.55
2023-05-08T09:03:29.102Z,78.28
2023-05-08T09:06:03.369Z,77.77
2023-05-08T09:08:32.654Z,77.11
2023-05-08T09:11:02.697Z,77.48
2023-05-08T09:13:31.264Z,77.71
2023-05-08T09:16:00.625Z,78.20
2023-05-08T09:18:29.181Z,77.62
2023-05-08T09:20:57.775Z,77.24
2023-05-08T09:23:26.443Z,76.56
2023-05-08T09:25:54.786Z,75.90
2023-05-08T09:28:26.240Z,75.54
2023-05-08T09:30:57.398Z,75.52
2023-05-08T09:33:28.817Z,75.14
2023-05-08T09:35:57.640Z,74.76
2023-05-08T09:38:36.580Z,74.12
2023-05-08T09:41:16.887Z,73.59
2023-05-08T09:44:01.431Z,74.13
2023-05-08T09:46:31.329Z,73.81
2023-05-08T09:49:02.576Z,72.96
2023-05-08T09:51:32.806Z,72.59
2023-05-08T09:54:04.219Z,72.80
2023-05-08T09:56:34.444Z,72.50
2023-05-08T09:59:22.083Z,71.99
2023-05-08T10:01:51.089Z,71.44
2023-05-08T10:04:40.244Z,70.50
2023-05-08T10:07:08.774Z,70.32
2023-05-08T10:09:49.898Z,70.52
2023-05-08T10:12:21.439Z,70.58
2023-05-08T10:14:51.083Z,70.03
2023-05-08T10:17:27.823Z,69.38
2023-05-08T10:20:03.811Z,69.08
2023-05-08T10:22:36.390Z,68.77
2023-05-08T10:25:10.873Z,69.01
2023-05-08T10:27:52.874Z,69.31
2023-05-08T10:30:26.130Z,69.40
2023-05-08T10:32:56.415Z,69.14
2023-05-08T10:35:25.512Z,68.86
2023-05-08T10:37:55.856Z,68.38
2023-05-08T10:40:24.424Z,67.54
2023-05-08T10:42:53.903Z,67.14
2023-05-08T10:45:22.536Z,67.17
2023-05-08T10:48:08.109Z,66.65
2023-05-08T10:51:18.834Z,65.78
2023-05-08T10:54:07.021Z,65.07
2023-05-08T10:56:39.576Z,64.49
2023-05-08T10:59:18.760Z,64.66
2023-05-08T11:01:50.729Z,64.25
2023-05-08T11:04:23.949Z,63.73
2023-05-08T11:06:55.333Z,63.25
2023-05-08T11:09:45.738Z,62.83
2023-05-08T11:12:27.689Z,61.26
2023-05-08T11:15:06.746Z,60.96
2023-05-08T11:17:35.900Z,60.39
2023-05-08T11:20:06.968Z,60.04
2023-05-08T11:22:37.177Z,59.74
2023-05-08T11:25:14.638Z,59.18
2023-05-08T11:27:49.326Z,59.34
2023-05-08T11:30:33.692Z,59.09
2023-05-08T11:33:05.368Z,58.15
2023-05-08T11:35:49.125Z,57.56
2023-05-08T11:38:23.897Z,57.37
2023-05-08T11:40:58.534Z,56.83
2023-05-08T11:43:32.973Z,56.73
2023-05-08T11:46:21.852Z,56.03
2023-05-08T11:49:01.454Z,55.63
2023-05-08T11:51:33.911Z,55.52
2023-05-08T11:54:03.096Z,55.61
2023-05-08T11:56:31.705Z,55.65
2023-05-08T11:59:11.631Z,54.92
2023-05-08T12:01:40.248Z,54.26
2023-05-08T12:04:11.753Z,54.45
2023-05-08T12:06:42.279Z,54.15
2023-05-08T12:09:19.067Z,53.72
2023-05-08T12:11:47.647Z,53.25
2023-05-08T12:14:18.136Z,53.25
2023-05-08T12:16:46.603Z,52.64
2023-05-08T12:19:15.322Z,52.32
2023-05-08T12:21:51.534Z,52.03
2023-05-08T12:24:23.547Z,51.65
2023-05-08T12:26:56.567Z,51.01
2023-05-08T12:29:27.352Z,51.35
2023-05-08T12:31:56.022Z,51.12
2023-05-08T12:34:24.575Z,50.66
2023-05-08T12:37:03.513Z,50.06
2023-05-08T12:39:37.588Z,49.72
2023-05-08T12:42:06.175Z,49.79
2023-05-08T12:44:34.536Z,49.42
2023-05-08T12:47:05.160Z,49.38
2023-05-08T12:49:33.579Z,49.34
2023-05-08T12:52:12.434Z,49.02
2023-05-08T12:54:48.420Z,48.58
2023-05-08T12:57:19.658Z,47.96
2023-05-08T12:59:49.084Z,47.36
2023-05-08T13:02:23.866Z,47.23
2023-05-08T13:04:56.557Z,47.28
2023-05-08T13:07:31.465Z,46.91
2023-05-08T13:10:04.679Z,46.41
2023-05-08T13:12:34.178Z,46.28
2023-05-08T13:15:04.742Z,45.37
2023-05-08T13:17:33.155Z,45.14
2023-05-08T13:20:05.200Z,45.39
2023-05-08T13:22:34.548Z,45.72
2023-05-08T13:25:03.951Z,45.84
2023-05-08T13:27:32.339Z,45.41
2023-05-08T13:30:00.835Z,45.21
2023-05-08T13:32:29.218Z,45.05
2023-05-08T13:35:13.419Z,45.14
2023-05-08T13:37:43.433Z,45.20
2023-05-08T13:40:14.283Z,44.77
2023-05-08T13:42:43.168Z,44.19
2023-05-08T13:45:14.358Z,44.29
2023-05-08T13:47:43.702Z,44.61
2023-05-08T13:50:14.997Z,44.55
2023-05-08T13:52:43.328Z,44.48
2023-05-08T13:55:13.707Z,43.98
2023-05-08T13:57:42.471Z,43.79
2023-05-08T14:00:12.128Z,43.48
2023-05-08T14:02:40.668Z,43.32
2023-05-08T14:05:09.419Z,43.09
2023-05-08T14:07:38.023Z,43.03
2023-05-08T14:10:06.897Z,42.42
2023-05-08T14:12:38.327Z,42.15
2023-05-08T14:15:07.809Z,42.25
2023-05-08T14:17:36.328Z,42.20
2023-05-08T14:20:05.571Z,41.74
2023-05-08T14:22:34.013Z,41.58
2023-05-08T14:25:02.526Z,41.44
2023-05-08T14:27:30.917Z,41.25
2023-05-08T14:29:59.240Z,41.20
2023-05-08T14:32:27.757Z,41.23
2023-05-08T14:34:56.115Z,41.04
2023-05-08T14:37:24.521Z,40.80
2023-05-08T14:39:54.203Z,40.66
2023-05-08T14:42:23.847Z,40.37
2023-05-08T14:44:52.402Z,40.21
2023-05-08T14:47:21.009Z,40.56
2023-05-08T14:49:49.302Z,40.39
2023-05-08T14:52:17.604Z,40.22
2023-05-08T14:54:48.012Z,40.09
2023-05-08T14:57:16.474Z,39.77
2023-05-08T14:59:54.184Z,39.61
2023-05-08T15:02:24.172Z,39.49
2023-05-08T15:04:52.865Z,39.38
2023-05-08T15:07:21.385Z,38.98
2023-05-08T15:09:51.572Z,38.99
2023-05-08T15:12:20.567Z,38.97
2023-05-08T15:14:49.337Z,38.53
2023-05-08T15:17:17.766Z,38.05
2023-05-08T15:19:46.241Z,38.45
2023-05-08T15:22:14.779Z,38.41
2023-05-08T15:24:45.341Z,38.19
2023-05-08T15:27:14.243Z,37.97
2023-05-08T15:29:42.701Z,37.95
2023-05-08T15:32:11.142Z,37.78
2023-05-08T15:34:40.731Z,37.79
2023-05-08T15:37:09.184Z,37.69
2023-05-08T15:39:37.671Z,37.32
2023-05-08T15:42:06.350Z,37.60
2023-05-08T15:44:53.289Z,37.56
2023-05-08T15:47:23.962Z,37.28
2023-05-08T15:49:52.797Z,37.29
2023-05-08T15:52:21.380Z,37.19
2023-05-08T15:54:50.639Z,36.91
2023-05-08T15:57:19.104Z,36.54
2023-05-08T15:59:47.535Z,36.33
2023-05-08T16:02:16.092Z,36.37
2023-05-08T16:04:45.160Z,36.51
2023-05-08T16:07:15.299Z,36.67
2023-05-08T16:09:43.690Z,36.41
2023-05-08T16:12:12.128Z,36.25
2023-05-08T16:14:40.518Z,36.00
2023-05-08T16:17:08.848Z,35.93
2023-05-08T16:19:40.992Z,35.88
2023-05-08T16:22:09.452Z,35.93
2023-05-08T16:24:37.878Z,35.60
2023-05-08T16:27:06.582Z,35.17
2023-05-08T16:29:35.000Z,35.36
2023-05-08T16:32:03.408Z,35.23
2023-05-08T16:34:32.034Z,35.24
2023-05-08T16:37:01.500Z,35.05
2023-05-08T16:39:29.891Z,35.22
2023-05-08T16:41:58.296Z,35.13
2023-05-08T16:44:26.760Z,35.05
2023-05-08T16:46:55.738Z,35.06
2023-05-08T16:49:24.080Z,35.24
2023-05-08T16:51:52.479Z,34.82
2023-05-08T16:54:20.882Z,34.42
2023-05-08T16:56:49.205Z,34.13
2023-05-08T16:59:17.529Z,34.18
2023-05-08T17:01:45.903Z,34.08
2023-05-08T17:04:14.603Z,34.09
2023-05-08T17:06:42.972Z,34.38
2023-05-08T17:09:11.395Z,34.56
2023-05-08T17:11:39.924Z,34.24
2023-05-08T17:14:08.256Z,34.41
2023-05-08T17:16:38.170Z,34.24
2023-05-08T17:19:06.988Z,34.20
2023-05-08T17:21:35.450Z,33.96
2023-05-08T17:24:04.216Z,34.03
2023-05-08T17:26:33.727Z,33.94
2023-05-08T17:29:02.730Z,33.85
2023-05-08T17:31:31.412Z,33.88
2023-05-08T17:33:59.861Z,33.93
2023-05-08T17:36:28.337Z,33.88
2023-05-08T17:38:56.709Z,33.94
2023-05-08T17:41:25.237Z,33.75
2023-05-08T17:43:54.097Z,33.44
2023-05-08T17:46:22.513Z,33.46
2023-05-08T17:48:51.332Z,34.08
2023-05-08T17:51:19.833Z,34.16
2023-05-08T17:53:52.890Z,34.38
2023-05-08T17:56:23.360Z,34.56
2023-05-08T17:58:53.766Z,34.83
2023-05-08T18:01:22.157Z,35.02
2023-05-08T18:03:52.807Z,35.35
2023-05-08T18:06:21.742Z,35.76
2023-05-08T18:08:50.118Z,36.30
2023-05-08T18:11:27.496Z,36.69
2023-05-08T18:13:55.923Z,37.63
2023-05-08T18:16:24.373Z,38.22
2023-05-08T18:18:52.874Z,38.95
2023-05-08T18:21:21.271Z,39.46
2023-05-08T18:23:54.252Z,39.89
2023-05-08T18:26:25.544Z,40.51
2023-05-08T18:28:53.936Z,40.94
2023-05-08T18:31:22.344Z,41.56
2023-05-08T18:33:50.729Z,42.07
2023-05-08T18:36:19.157Z,42.55
2023-05-08T18:38:47.725Z,43.13
2023-05-08T18:41:16.206Z,43.61
2023-05-08T18:43:44.949Z,44.01
2023-05-08T18:46:14.419Z,44.52
2023-05-08T18:48:43.564Z,45.14
2023-05-08T18:51:12.300Z,45.67
2023-05-08T18:53:40.893Z,46.21
2023-05-08T18:56:09.338Z,46.57
2023-05-08T18:58:37.805Z,47.10
2023-05-08T19:01:06.592Z,47.52
2023-05-08T19:03:35.056Z,48.01
2023-05-08T19:06:03.997Z,48.39
2023-05-08T19:08:32.341Z,48.86
2023-05-08T19:11:00.719Z,49.30
2023-05-08T19:13:29.185Z,49.75
2023-05-08T19:15:57.723Z,50.09
2023-05-08T19:18:26.190Z,50.44
2023-05-08T19:20:54.613Z,50.88
2023-05-08T19:23:23.424Z,51.24
2023-05-08T19:25:52.813Z,51.53
2023-05-08T19:28:21.218Z,52.01
2023-05-08T19:30:49.780Z,52.34
2023-05-08T19:33:20.778Z,52.62
2023-05-08T19:35:49.585Z,53.07
2023-05-08T19:38:18.150Z,53.25
2023-05-08T19:40:56.324Z,53.40
2023-05-08T19:43:26.554Z,53.75
2023-05-08T19:45:55.704Z,54.07
2023-05-08T19:48:24.717Z,54.22
2023-05-08T19:50:55.062Z,54.46
2023-05-08T19:53:23.776Z,54.98
2023-05-08T19:55:52.341Z,55.34
2023-05-08T19:58:20.862Z,55.74
2023-05-08T20:00:51.520Z,56.08
2023-05-08T20:03:20.665Z,56.33
2023-05-08T20:05:51.798Z,56.48
2023-05-08T20:08:20.245Z,56.85
2023-05-08T20:10:49.149Z,57.10
2023-05-08T20:13:17.876Z,57.38
2023-05-08T20:15:46.356Z,57.66
2023-05-08T20:18:14.796Z,57.92
2023-05-08T20:20:45.108Z,57.93
2023-05-08T20:23:13.502Z,58.18
2023-05-08T20:25:46.054Z,58.35
2023-05-08T20:28:15.522Z,58.63
2023-05-08T20:30:43.956Z,59.00
2023-05-08T20:33:12.393Z,59.16
2023-05-08T20:35:40.774Z,59.26
2023-05-08T20:38:09.152Z,59.40
2023-05-08T20:40:37.756Z,59.49
2023-05-08T20:43:06.116Z,59.77
2023-05-08T20:45:34.525Z,59.88
2023-05-08T20:48:03.438Z,59.85
2023-05-08T20:50:31.951Z,60.02
2023-05-08T20:53:00.299Z,60.15
2023-05-08T20:55:28.750Z,60.28
2023-05-08T20:57:59.360Z,60.18
2023-05-08T21:00:27.804Z,60.26
2023-05-08T21:02:56.275Z,60.38
2023-05-08T21:05:24.690Z,60.57
2023-05-08T21:07:58.474Z,60.76
2023-05-08T21:10:30.626Z,60.78
2023-05-08T21:12:59.063Z,61.13
2023-05-08T21:15:27.491Z,61.22
2023-05-08T21:17:57.100Z,61.31
2023-05-08T21:20:25.708Z,61.47
2023-05-08T21:22:54.160Z,61.70
2023-05-08T21:25:22.581Z,61.89
2023-05-08T21:27:51.645Z,62.11
2023-05-08T21:30:21.321Z,62.22
2023-05-08T21:32:49.743Z,62.34
2023-05-08T21:35:18.276Z,62.36
2023-05-08T21:37:46.616Z,62.68
2023-05-08T21:40:14.943Z,62.74
2023-05-08T21:42:43.265Z,62.80
2023-05-08T21:45:11.920Z,63.12
2023-05-08T21:47:40.536Z,63.01
2023-05-08T21:50:09.635Z,63.35
2023-05-08T21:52:38.008Z,63.29
2023-05-08T21:55:08.696Z,63.32
2023-05-08T21:57:37.544Z,63.66
2023-05-08T22:00:09.392Z,63.66
2023-05-08T22:02:37.817Z,63.81
2023-05-08T22:05:07.646Z,63.97
2023-05-08T22:07:36.009Z,63.81
2023-05-08T22:10:05.282Z,64.02
2023-05-08T22:12:33.600Z,64.10
2023-05-08T22:15:02.553Z,64.16
2023-05-08T22:17:31.520Z,64.47
2023-05-08T22:19:59.858Z,64.56
2023-05-08T22:22:28.458Z,64.65
2023-05-08T22:24:57.439Z,64.76
2023-05-08T22:27:25.849Z,64.81
2023-05-08T22:29:54.422Z,64.89
2023-05-08T22:32:24.374Z,65.07
2023-05-08T22:34:52.916Z,65.25
2023-05-08T22:37:22.268Z,65.31
2023-05-08T22:39:50.860Z,65.36
2023-05-08T22:42:19.343Z,65.53
2023-05-08T22:44:48.190Z,65.73
2023-05-08T22:47:16.994Z,65.73
2023-05-08T22:49:45.430Z,65.90
2023-05-08T22:52:13.774Z,66.02
2023-05-08T22:54:42.049Z,66.14
2023-05-08T22:57:10.403Z,66.29
2023-05-08T22:59:38.745Z,66.37
2023-05-08T23:02:07.123Z,66.41
2023-05-08T23:04:35.574Z,66.67
2023-05-08T23:07:03.939Z,66.62
2023-05-08T23:09:32.340Z,66.63
2023-05-08T23:12:00.659Z,66.99
2023-05-08T23:14:29.071Z,67.07
2023-05-08T23:16:57.495Z,67.09
2023-05-08T23:19:25.958Z,67.28
2023-05-08T23:21:54.357Z,67.19
2023-05-08T23:24:22.669Z,67.33
2023-05-08T23:26:52.485Z,67.60
2023-05-08T23:29:20.920Z,67.73
2023-05-08T23:31:49.320Z,67.73
2023-05-08T23:34:17.696Z,67.93
2023-05-08T23:36:46.172Z,67.79
2023-05-08T23:39:14.578Z,68.18
2023-05-08T23:41:42.929Z,68.15
2023-05-08T23:44:11.549Z,68.29
2023-05-08T23:46:39.929Z,68.48
2023-05-08T23:49:08.610Z,68.58
2023-05-08T23:51:37.083Z,68.75
2023-05-08T23:54:05.789Z,68.72
2023-05-08T23:56:34.104Z,68.94
2023-05-08T23:59:02.475Z,68.90
